Nearby METAR Reports

 

KCPC - Whiteville, North Carolina, USA
Distance from station: NNE 17mi, 28km
Updated: 03/29/2017 5:00am
Mostly cloudy
Mostly cloudy
 Wind from calm
Wind: Calm
Temperature: 63°F , 17°C
Dew Point: 54°F , 12°C
Humidity: 73%
Barometer: 29.95 inHg , 1014.2 hPa
Clouds: Mostly cloudy
Visibility: 10 miles , 16 km
Cloud details: Mostly cloudy 6500 ft
2017/03/29 09:00 KCPC 290900Z AUTO 00000KT 10SM BKN065 17/12 A2995 RMK AO2 T01700116
KCRE - North Myrtle Bea, South Carolina, USA
Distance from station: SSE 19mi, 31km
Updated: 03/29/2017 4:53am
Clear
Clear
 Wind from N
Wind: N 5 mph , 7 km/h
Temperature: 63°F , 17°C
Dew Point: 55°F , 13°C
Humidity: 77%
Barometer: 29.93 inHg , 1013.5 hPa
Clouds: Clear
Visibility: 10 miles , 16 km
2017/03/29 08:53 KCRE 290853Z AUTO 36004KT 10SM CLR 17/13 A2993 RMK AO1 SLP137 T01670128 53002
 
KHYW - Conway-Horry Cty, South Carolina, USA
Distance from station: SW 22mi, 35km
Updated: 03/29/2017 4:55am
Clear
Clear
 Wind from calm
Wind: Calm
Temperature: 54°F , 12°C
Dew Point: 52°F , 11°C
Humidity: 94%
Barometer: 29.95 inHg , 1014.2 hPa
Clouds: Clear
Visibility: 7 miles , 11 km
2017/03/29 08:55 KHYW 290855Z AUTO 00000KT 7SM CLR 12/11 A2995 RMK AO2
KMAO - Marion, South Carolina, USA
Distance from station: WNW 28mi, 45km
Updated: 03/29/2017 4:55am
Partly cloudy
Partly cloudy
 Wind from calm
Wind: Calm
Temperature: 57°F , 14°C
Dew Point: 54°F , 12°C
Humidity: 88%
Barometer: 29.96 inHg , 1014.6 hPa
Clouds: Partly cloudy
Visibility: 10 miles , 16 km
Cloud details: Partly cloudy 6000 ft
2017/03/29 08:55 KMAO 290855Z AUTO 00000KT 10SM SCT060 14/12 A2996 RMK AO2
 
KMYR - Myrtle Beach, South Carolina, USA
Distance from station: S 28mi, 45km
Updated: 03/29/2017 4:56am
Clear
Clear
 Wind from N
Wind: N 8 mph , 13 km/h
Temperature: 64°F , 18°C
Dew Point: 54°F , 12°C
Humidity: 68%
Barometer: 29.95 inHg , 1014.2 hPa
Clouds: Clear
Visibility: 10 miles , 16 km
2017/03/29 08:56 KMYR 290856Z AUTO 36007KT 10SM CLR 18/12 A2995 RMK AO2 SLP142 T01830122 53001
KLBT - Lumberton, North Carolina, USA
Distance from station: NNW 39mi, 62km
Updated: 03/29/2017 4:54am
Few Clouds
Few Clouds
 Wind from calm
Wind: Calm
Temperature: 55°F , 13°C
Dew Point: 54°F , 12°C
Humidity: 94%
Barometer: 29.95 inHg , 1014.2 hPa
Clouds: Few Clouds
Visibility: 10 miles , 16 km
Cloud details: Few Clouds 6500 ft
2017/03/29 08:54 KLBT 290854Z AUTO 00000KT 10SM FEW065 13/12 A2995 RMK AO2 SLP141 T01330117 53001
 
KSUT - Southport, North Carolina, USA
Distance from station: E 46mi, 74km
Updated: 03/29/2017 5:05am
Clear
Clear
 Wind from N
Wind: N 5 mph , 7 km/h
Temperature: 63°F , 17°C
Dew Point: 61°F , 16°C
Humidity: 94%
Barometer: 29.93 inHg , 1013.5 hPa
Clouds: Clear
Visibility: 10 miles , 16 km
2017/03/29 09:05 KSUT 290905Z AUTO 36004KT 10SM CLR 17/16 A2993 RMK AO2 T01660157
KFLO - Florence, South Carolina, USA
Distance from station: W 50mi, 81km
Updated: 03/29/2017 4:53am
Partly cloudy
Partly cloudy
 Wind from N
Wind: N 5 mph , 7 km/h
Temperature: 59°F , 15°C
Dew Point: 54°F , 12°C
Humidity: 82%
Barometer: 29.96 inHg , 1014.6 hPa
Clouds: Partly cloudy
Visibility: 10 miles , 16 km
Cloud details: Partly cloudy 6000 ft
2017/03/29 08:53 KFLO 290853Z AUTO 35004KT 10SM SCT060 15/12 A2996 RMK AO2 SLP143 T01500117 51002